Time;durP1;ratioP1;P1;durP2;ratioP2;P2;SDS_P1;SDS_P2;PMS_P1;PMS_P2;Temp;Humidity;BMP_temperature;BMP_pressure;BME280_temperature;BME280_humidity;BME280_pressure;Samples;Min_cycle;Max_cycle;Signal;HPM_P1;HPM_P2
2021/05/03 00:00:34;;;;;;;4.87;4.47;;;;;20.40;100979.00;;;;2075156;28;20731;-69
2021/05/03 00:01:34;;;;;;;5.13;4.37;;;;;20.40;100977.00;;;;2078733;28;20264;-69
2021/05/03 00:02:35;;;;;;;4.57;4.17;;;;;20.40;100974.00;;;;2078025;28;20303;-69
2021/05/03 00:03:35;;;;;;;5.13;4.63;;;;;20.40;100976.00;;;;2066110;28;20215;-69
2021/05/03 00:04:36;;;;;;;3.90;3.60;;;;;20.40;100977.00;;;;2073003;28;20466;-69
2021/05/03 00:05:36;;;;;;;4.87;3.93;;;;;20.40;100972.00;;;;2079649;28;20214;-69
2021/05/03 00:06:36;;;;;;;4.27;3.87;;;;;20.40;100974.00;;;;2079791;28;20268;-70
2021/05/03 00:07:37;;;;;;;3.70;3.40;;;;;20.40;100977.00;;;;2079699;28;20248;-69
2021/05/03 00:08:37;;;;;;;4.40;4.00;;;;;20.30;100975.00;;;;2075563;28;20214;-69
2021/05/03 00:09:37;;;;;;;4.20;3.80;;;;;20.40;100976.00;;;;2078758;28;20217;-69
2021/05/03 00:10:38;;;;;;;3.90;3.50;;;;;20.30;100967.00;;;;2078637;28;20702;-69
2021/05/03 00:11:38;;;;;;;4.20;3.80;;;;;20.30;100965.00;;;;2078623;28;20232;-69
2021/05/03 00:12:39;;;;;;;4.83;3.70;;;;;20.30;100970.00;;;;2077927;28;20210;-69
2021/05/03 00:13:39;;;;;;;4.23;3.87;;;;;20.30;100968.00;;;;2070090;28;20215;-69
2021/05/03 00:14:40;;;;;;;4.37;3.63;;;;;20.30;100974.00;;;;2078324;28;20218;-69
2021/05/03 00:15:40;;;;;;;4.20;3.20;;;;;20.30;100970.00;;;;2078400;28;20222;-69
2021/05/03 00:16:40;;;;;;;4.07;3.70;;;;;20.30;100960.00;;;;2078497;28;20212;-69
2021/05/03 00:17:41;;;;;;;3.70;3.40;;;;;20.30;100969.00;;;;2078712;28;20218;-69
2021/05/03 00:18:42;;;;;;;3.53;3.22;;;;;20.30;100965.00;;;;2070337;28;20212;-69
2021/05/03 00:19:42;;;;;;;3.90;3.60;;;;;20.30;100968.00;;;;2070621;28;20657;-69
2021/05/03 00:20:44;;;;;;;3.70;3.37;;;;;20.30;100969.00;;;;2080155;28;20639;-69
2021/05/03 00:21:44;;;;;;;4.70;3.38;;;;;20.30;100965.00;;;;2072381;28;20210;-69
2021/05/03 00:22:44;;;;;;;4.17;3.47;;;;;20.30;100969.00;;;;2076843;28;20222;-69
2021/05/03 00:23:45;;;;;;;3.37;3.10;;;;;20.30;100961.00;;;;2077877;28;20385;-69
2021/05/03 00:24:45;;;;;;;3.63;3.33;;;;;20.30;100964.00;;;;2071483;28;20728;-69
2021/05/03 00:25:45;;;;;;;3.70;3.27;;;;;20.30;100967.00;;;;2063638;28;20297;-69
2021/05/03 00:26:46;;;;;;;3.43;3.13;;;;;20.30;100973.00;;;;2054326;28;20270;-69
2021/05/03 00:27:46;;;;;;;3.33;3.03;;;;;20.30;100973.00;;;;2071499;28;20221;-69
2021/05/03 00:28:46;;;;;;;3.50;3.20;;;;;20.30;100974.00;;;;2080367;28;20214;-69
2021/05/03 00:29:47;;;;;;;3.60;3.30;;;;;20.30;100970.00;;;;2080344;28;20218;-69
2021/05/03 00:30:47;;;;;;;3.60;3.30;;;;;20.30;100964.00;;;;2080277;28;20218;-69
2021/05/03 00:31:47;;;;;;;4.07;3.67;;;;;20.30;100973.00;;;;2071434;28;20241;-69
2021/05/03 00:32:48;;;;;;;3.27;2.97;;;;;20.30;100974.00;;;;2071510;28;20994;-69
2021/05/03 00:33:48;;;;;;;3.73;3.27;;;;;20.30;100963.00;;;;2075637;28;20585;-69
2021/05/03 00:34:48;;;;;;;3.40;3.10;;;;;20.30;100961.00;;;;2080185;28;20217;-69
2021/05/03 00:35:49;;;;;;;3.23;2.93;;;;;20.30;100961.00;;;;2080886;28;20301;-69
2021/05/03 00:36:49;;;;;;;3.80;2.90;;;;;20.30;100966.00;;;;2080957;28;20746;-69
2021/05/03 00:37:49;;;;;;;3.20;2.90;;;;;20.20;100967.00;;;;2080797;28;20723;-69
2021/05/03 00:38:50;;;;;;;3.90;3.07;;;;;20.30;100938.00;;;;2069372;28;20785;-69
2021/05/03 00:39:50;;;;;;;3.17;2.87;;;;;20.20;100959.00;;;;2072095;28;20594;-69
2021/05/03 00:40:51;;;;;;;3.40;3.10;;;;;20.20;100952.00;;;;2080658;28;20214;-69
2021/05/03 00:41:51;;;;;;;3.20;2.90;;;;;20.20;100963.00;;;;2080274;28;20226;-69
2021/05/03 00:42:51;;;;;;;3.07;2.77;;;;;20.20;100957.00;;;;2080376;28;20256;-69
2021/05/03 00:43:52;;;;;;;2.93;2.60;;;;;20.20;100953.00;;;;2076644;28;20244;-69
2021/05/03 00:44:52;;;;;;;4.20;3.30;;;;;20.20;100961.00;;;;2079896;28;20214;-69
2021/05/03 00:45:52;;;;;;;2.97;2.77;;;;;20.30;100958.00;;;;2071143;28;20674;-69
2021/05/03 00:46:56;;;;;;;2.97;2.77;;;;;20.20;100956.00;;;;2071538;28;20749;-69
2021/05/03 00:47:56;;;;;;;2.85;2.65;;;;;20.20;100957.00;;;;2071340;28;20653;-69
2021/05/03 00:48:57;;;;;;;3.30;3.00;;;;;20.20;100958.00;;;;2071326;28;20218;-68
2021/05/03 00:49:57;;;;;;;3.10;2.90;;;;;20.20;100957.00;;;;2079530;28;20500;-69
2021/05/03 00:50:57;;;;;;;3.43;3.13;;;;;20.20;100954.00;;;;2079586;28;20218;-69
2021/05/03 00:51:58;;;;;;;3.93;2.73;;;;;20.20;100970.00;;;;2079656;28;20225;-68
2021/05/03 00:52:58;;;;;;;2.87;2.67;;;;;20.20;100959.00;;;;2069511;28;20225;-69
2021/05/03 00:53:58;;;;;;;3.03;2.60;;;;;20.20;100949.00;;;;2071345;28;20230;-69
2021/05/03 00:54:59;;;;;;;2.93;2.73;;;;;20.20;100956.00;;;;2071596;28;20242;-69
2021/05/03 00:55:59;;;;;;;2.80;2.60;;;;;20.20;100958.00;;;;2079479;28;20267;-69
2021/05/03 00:56:59;;;;;;;2.80;2.60;;;;;20.20;100959.00;;;;2080297;28;20218;-69
2021/05/03 00:58:00;;;;;;;2.77;2.57;;;;;20.20;100958.00;;;;2071614;28;20222;-69
2021/05/03 00:59:00;;;;;;;2.90;2.70;;;;;20.20;100946.00;;;;2075049;28;20238;-69
2021/05/03 01:00:01;;;;;;;3.40;3.10;;;;;20.20;100951.00;;;;2079402;28;20218;-69
2021/05/03 01:01:02;;;;;;;2.83;2.53;;;;;20.20;100963.00;;;;2079986;28;20222;-69
2021/05/03 01:02:02;;;;;;;2.80;2.60;;;;;20.20;100952.00;;;;2063675;28;20586;-69
2021/05/03 01:03:03;;;;;;;2.90;2.70;;;;;20.20;100958.00;;;;2066948;28;20509;-69
2021/05/03 01:04:03;;;;;;;2.87;2.67;;;;;20.20;100951.00;;;;2080198;28;20593;-69
2021/05/03 01:05:05;;;;;;;2.60;2.40;;;;;20.20;100957.00;;;;2080353;28;20691;-69
2021/05/03 01:06:05;;;;;;;3.10;2.80;;;;;20.10;100959.00;;;;2079602;28;20248;-69
2021/05/03 01:07:05;;;;;;;3.53;3.23;;;;;20.20;100959.00;;;;2080064;28;20267;-69
2021/05/03 01:08:06;;;;;;;2.70;2.50;;;;;20.20;100955.00;;;;2079985;28;20216;-69
2021/05/03 01:09:06;;;;;;;2.80;2.47;;;;;20.20;100957.00;;;;2080123;28;20214;-69
2021/05/03 01:10:07;;;;;;;2.97;2.77;;;;;20.10;100962.00;;;;2080388;28;20871;-68
2021/05/03 01:11:07;;;;;;;2.93;2.63;;;;;20.10;100965.00;;;;2079570;28;20291;-69
2021/05/03 01:12:08;;;;;;;2.60;2.40;;;;;20.10;100956.00;;;;2079896;28;20947;-69
2021/05/03 01:13:09;;;;;;;2.90;2.70;;;;;20.10;100962.00;;;;2077702;28;20220;-69
2021/05/03 01:14:09;;;;;;;3.07;2.77;;;;;20.10;100967.00;;;;2080051;28;20812;-69
2021/05/03 01:15:10;;;;;;;2.53;2.30;;;;;20.10;100965.00;;;;2080732;28;20217;-69
2021/05/03 01:16:10;;;;;;;2.83;2.63;;;;;20.10;100972.00;;;;2079818;28;20202;-69
2021/05/03 01:17:11;;;;;;;2.80;2.60;;;;;20.10;100963.00;;;;2071557;28;20277;-69
2021/05/03 01:18:11;;;;;;;2.70;2.50;;;;;20.10;100964.00;;;;2077229;28;20202;-69
2021/05/03 01:19:12;;;;;;;2.77;2.57;;;;;20.10;100969.00;;;;2080066;28;20214;-69
2021/05/03 01:20:15;;;;;;;2.83;2.63;;;;;20.10;100965.00;;;;2079565;28;20210;-69
2021/05/03 01:21:26;;;;;;;2.67;2.47;;;;;20.10;100965.00;;;;2079049;28;20285;-69
2021/05/03 01:22:26;;;;;;;2.60;2.40;;;;;20.10;100966.00;;;;2064442;28;20776;-69
2021/05/03 01:23:26;;;;;;;3.10;2.70;;;;;20.10;100969.00;;;;2052293;28;20279;-69
2021/05/03 01:24:27;;;;;;;3.10;2.33;;;;;20.10;100971.00;;;;2071206;28;20222;-69
2021/05/03 01:25:38;;;;;;;2.73;2.50;;;;;20.10;100970.00;;;;2079878;28;20214;-69
2021/05/03 01:26:38;;;;;;;2.70;2.50;;;;;20.10;100968.00;;;;2077197;28;20612;-69
2021/05/03 01:27:39;;;;;;;3.50;3.00;;;;;20.10;100952.00;;;;2078924;28;20297;-69
2021/05/03 01:28:39;;;;;;;3.23;2.53;;;;;20.10;100967.00;;;;2058392;28;20215;-69
2021/05/03 01:29:39;;;;;;;2.87;2.60;;;;;20.10;100967.00;;;;2069787;28;20257;-69
2021/05/03 01:30:41;;;;;;;3.10;2.83;;;;;20.10;100976.00;;;;2080352;28;20201;-69
2021/05/03 01:31:46;;;;;;;2.53;2.33;;;;;20.10;100971.00;;;;2070977;28;20206;-68
2021/05/03 01:32:46;;;;;;;2.80;2.30;;;;;20.10;100976.00;;;;2059716;28;20274;-69
2021/05/03 01:33:46;;;;;;;3.17;2.87;;;;;20.10;100970.00;;;;2065876;28;20301;-69
2021/05/03 01:34:47;;;;;;;2.83;2.63;;;;;20.10;100967.00;;;;2079413;28;20218;-69
2021/05/03 01:35:48;;;;;;;2.93;2.53;;;;;20.10;100976.00;;;;2079419;28;20214;-69
2021/05/03 01:36:48;;;;;;;2.83;2.60;;;;;20.10;100981.00;;;;2071568;28;20211;-69
2021/05/03 01:37:52;;;;;;;2.63;2.30;;;;;20.10;100971.00;;;;2079567;28;20851;-69
2021/05/03 01:38:53;;;;;;;2.30;2.10;;;;;20.00;100977.00;;;;2068520;28;20238;-69
2021/05/03 01:39:53;;;;;;;2.60;2.40;;;;;20.00;100976.00;;;;2071391;28;20210;-69
2021/05/03 01:40:54;;;;;;;3.00;2.70;;;;;20.00;100979.00;;;;2080475;28;20276;-69
2021/05/03 01:41:54;;;;;;;2.50;2.30;;;;;20.00;100975.00;;;;2080335;28;20218;-69
2021/05/03 01:42:55;;;;;;;2.53;2.33;;;;;20.00;100981.00;;;;2080355;28;20214;-69
2021/05/03 01:43:55;;;;;;;2.80;2.57;;;;;20.00;100973.00;;;;2079671;28;20230;-69
2021/05/03 01:44:57;;;;;;;2.87;2.53;;;;;20.00;100983.00;;;;2080344;28;20229;-69
2021/05/03 01:45:58;;;;;;;2.55;2.35;;;;;20.00;100981.00;;;;2079593;28;20652;-69
2021/05/03 01:46:58;;;;;;;3.75;2.30;;;;;20.00;100983.00;;;;2079579;28;20213;-70
2021/05/03 01:47:58;;;;;;;2.70;2.50;;;;;20.00;100968.00;;;;2079297;28;20580;-69
2021/05/03 01:48:59;;;;;;;2.50;2.30;;;;;20.00;100973.00;;;;2069049;28;20214;-69
2021/05/03 01:49:59;;;;;;;2.73;2.50;;;;;20.00;100967.00;;;;2070147;28;20237;-69
2021/05/03 01:51:00;;;;;;;2.63;2.40;;;;;20.00;100973.00;;;;2070558;28;20211;-69
2021/05/03 01:52:00;;;;;;;2.93;2.73;;;;;20.00;100972.00;;;;2078441;28;20214;-69
2021/05/03 01:53:01;;;;;;;2.67;2.47;;;;;20.00;100982.00;;;;2062914;28;20211;-69
2021/05/03 01:54:02;;;;;;;2.77;2.53;;;;;20.00;100980.00;;;;2058754;28;20231;-69
2021/05/03 01:55:03;;;;;;;2.70;2.50;;;;;20.00;100979.00;;;;2071078;28;20554;-69
2021/05/03 01:56:04;;;;;;;2.25;2.05;;;;;20.00;100981.00;;;;2078165;28;20205;-69
2021/05/03 01:57:04;;;;;;;2.83;2.53;;;;;20.00;100978.00;;;;2080221;28;20249;-69
2021/05/03 01:58:06;;;;;;;2.50;2.30;;;;;20.00;100973.00;;;;2079573;28;20210;-69
2021/05/03 01:59:06;;;;;;;2.60;2.40;;;;;20.00;100990.00;;;;2076586;28;20221;-69
2021/05/03 02:00:08;;;;;;;2.67;2.30;;;;;20.00;100991.00;;;;2079115;28;20220;-68
2021/05/03 02:01:08;;;;;;;2.60;2.40;;;;;20.00;100991.00;;;;2079639;28;20607;-68
2021/05/03 02:02:08;;;;;;;2.40;2.20;;;;;20.00;100988.00;;;;2079812;28;20222;-68
2021/05/03 02:03:25;;;;;;;3.13;2.83;;;;;20.00;100994.00;;;;2078702;28;20573;-69
2021/05/03 02:04:25;;;;;;;2.40;2.20;;;;;20.00;100992.00;;;;2078245;28;20222;-69
2021/05/03 02:05:26;;;;;;;2.73;2.53;;;;;20.00;100989.00;;;;2079160;28;20218;-69
2021/05/03 02:06:26;;;;;;;2.23;2.00;;;;;19.90;100985.00;;;;2078726;28;20241;-69
2021/05/03 02:07:26;;;;;;;2.70;2.50;;;;;20.00;100985.00;;;;2078933;28;20206;-68
2021/05/03 02:08:27;;;;;;;2.70;2.50;;;;;20.00;100991.00;;;;2078701;28;20249;-69
2021/05/03 02:09:27;;;;;;;2.80;2.60;;;;;20.00;100990.00;;;;2078895;28;20217;-69
2021/05/03 02:10:28;;;;;;;3.13;2.87;;;;;20.00;100995.00;;;;2079080;28;20221;-69
2021/05/03 02:11:28;;;;;;;2.70;2.50;;;;;20.00;100991.00;;;;2078880;28;20218;-69
2021/05/03 02:12:28;;;;;;;2.83;2.63;;;;;20.00;100992.00;;;;2079413;28;20747;-69
2021/05/03 02:13:30;;;;;;;2.20;2.00;;;;;20.00;100987.00;;;;2080137;28;20970;-69
2021/05/03 02:14:30;;;;;;;2.45;2.25;;;;;20.00;100988.00;;;;2079912;28;20230;-69
2021/05/03 02:15:31;;;;;;;2.90;2.50;;;;;20.00;100999.00;;;;2079438;28;20237;-69
2021/05/03 02:16:31;;;;;;;2.90;2.63;;;;;20.00;100997.00;;;;2062894;28;20270;-69
2021/05/03 02:17:31;;;;;;;2.43;2.23;;;;;19.90;100991.00;;;;2071174;28;20276;-69
2021/05/03 02:18:32;;;;;;;2.37;2.17;;;;;19.90;100992.00;;;;2078821;28;20606;-69
2021/05/03 02:19:32;;;;;;;3.07;2.87;;;;;19.90;100999.00;;;;2071115;28;20214;-69
2021/05/03 02:20:33;;;;;;;2.77;2.57;;;;;19.90;101001.00;;;;2079101;28;20214;-69
2021/05/03 02:21:33;;;;;;;2.20;2.10;;;;;19.90;100984.00;;;;2079245;28;20214;-69
2021/05/03 02:22:33;;;;;;;2.80;2.60;;;;;19.90;100993.00;;;;2071237;28;20306;-69
2021/05/03 02:23:33;;;;;;;2.67;2.47;;;;;19.90;100996.00;;;;2076388;28;20214;-69
2021/05/03 02:24:34;;;;;;;2.30;2.03;;;;;19.90;100998.00;;;;2080069;28;20224;-69
2021/05/03 02:25:34;;;;;;;2.37;2.27;;;;;19.90;100994.00;;;;2079924;28;20234;-69
2021/05/03 02:26:35;;;;;;;2.90;2.70;;;;;19.90;100991.00;;;;2079916;28;20217;-69
2021/05/03 02:27:35;;;;;;;2.67;2.47;;;;;19.90;100995.00;;;;2079899;28;20620;-69
2021/05/03 02:28:35;;;;;;;2.90;2.67;;;;;19.90;100985.00;;;;2070981;28;20651;-69
2021/05/03 02:29:36;;;;;;;2.97;2.67;;;;;19.90;100987.00;;;;2062865;28;20278;-69
2021/05/03 02:30:37;;;;;;;2.37;2.17;;;;;19.90;100985.00;;;;2079112;28;20210;-68
2021/05/03 02:31:37;;;;;;;2.55;2.35;;;;;19.90;100985.00;;;;2079281;28;20225;-68
2021/05/03 02:32:39;;;;;;;2.30;2.10;;;;;19.90;100981.00;;;;2078507;28;20258;-69
2021/05/03 02:33:39;;;;;;;2.90;2.70;;;;;19.90;100979.00;;;;2075781;28;20206;-69
2021/05/03 02:34:39;;;;;;;2.83;2.63;;;;;19.90;100985.00;;;;2079172;28;20992;-70
2021/05/03 02:35:40;;;;;;;2.70;2.50;;;;;19.90;100986.00;;;;2079891;28;20656;-69
2021/05/03 02:36:41;;;;;;;3.13;2.83;;;;;19.90;100986.00;;;;2078905;28;20218;-69
2021/05/03 02:37:43;;;;;;;2.50;2.30;;;;;19.90;100983.00;;;;2080017;28;20220;-68
2021/05/03 02:38:44;;;;;;;2.75;2.55;;;;;19.90;100977.00;;;;2078893;28;20491;-69
2021/05/03 02:39:44;;;;;;;3.00;2.80;;;;;19.90;100983.00;;;;2070298;28;20760;-68
2021/05/03 02:40:45;;;;;;;3.83;2.57;;;;;19.90;100975.00;;;;2075943;28;20218;-68
2021/05/03 02:41:45;;;;;;;2.67;2.47;;;;;19.70;100975.00;;;;2086821;28;20253;-68
2021/05/03 02:42:46;;;;;;;3.07;2.77;;;;;19.90;100973.00;;;;2086514;28;20225;-68
2021/05/03 02:43:47;;;;;;;2.50;2.30;;;;;19.80;100975.00;;;;2078013;28;20244;-68
2021/05/03 02:44:47;;;;;;;2.90;2.70;;;;;19.90;100972.00;;;;2079242;28;20214;-69
2021/05/03 02:45:48;;;;;;;2.70;2.50;;;;;19.80;100976.00;;;;2079144;28;20287;-69
2021/05/03 02:46:48;;;;;;;2.60;2.40;;;;;19.90;100973.00;;;;2070875;28;20215;-69
2021/05/03 02:47:48;;;;;;;3.17;2.33;;;;;19.80;100978.00;;;;2079192;28;20214;-69
2021/05/03 02:48:49;;;;;;;2.30;2.10;;;;;19.90;100975.00;;;;2076730;28;20226;-69
2021/05/03 02:49:49;;;;;;;2.87;2.60;;;;;19.80;100978.00;;;;2079095;28;20239;-69
2021/05/03 02:50:49;;;;;;;2.97;2.77;;;;;19.90;100975.00;;;;2079692;28;20229;-69
2021/05/03 02:51:50;;;;;;;2.87;2.57;;;;;19.80;100981.00;;;;2079741;28;20233;-69
2021/05/03 02:52:50;;;;;;;2.53;2.33;;;;;19.80;100979.00;;;;2079099;28;20762;-69
2021/05/03 02:53:51;;;;;;;2.80;2.50;;;;;19.80;100976.00;;;;2059633;28;20219;-70
2021/05/03 02:54:51;;;;;;;3.23;2.93;;;;;19.80;100982.00;;;;2062345;28;20454;-69
2021/05/03 02:55:51;;;;;;;3.13;2.70;;;;;19.80;100973.00;;;;2074873;28;20245;-69
2021/05/03 02:56:52;;;;;;;2.70;2.50;;;;;19.80;100974.00;;;;2079145;28;20224;-69
2021/05/03 02:57:52;;;;;;;2.77;2.53;;;;;19.80;100977.00;;;;2079971;28;20214;-69
2021/05/03 02:58:52;;;;;;;2.30;2.10;;;;;19.80;100977.00;;;;2075581;28;20272;-69
2021/05/03 02:59:53;;;;;;;2.90;2.67;;;;;19.80;100970.00;;;;2078628;28;20712;-69
2021/05/03 03:00:53;;;;;;;2.50;2.30;;;;;19.80;100985.00;;;;2079301;28;20218;-69
2021/05/03 03:01:53;;;;;;;2.57;2.37;;;;;19.80;100979.00;;;;2079697;28;20218;-69
2021/05/03 03:02:54;;;;;;;2.50;2.30;;;;;19.80;100981.00;;;;2079829;28;20315;-69
2021/05/03 03:03:54;;;;;;;3.30;3.00;;;;;19.80;100979.00;;;;2076696;28;20309;-69
2021/05/03 03:04:55;;;;;;;2.40;2.20;;;;;19.80;100981.00;;;;2078908;28;20311;-69
2021/05/03 03:05:57;;;;;;;2.70;2.50;;;;;19.80;100987.00;;;;2079669;28;20218;-69
2021/05/03 03:06:57;;;;;;;3.40;2.20;;;;;19.80;100983.00;;;;2075723;28;20340;-69
2021/05/03 03:08:01;;;;;;;2.37;2.17;;;;;19.80;100989.00;;;;2079585;28;20202;-69
2021/05/03 03:09:01;;;;;;;2.88;2.67;;;;;19.80;100989.00;;;;2078583;28;20241;-69
2021/05/03 03:10:02;;;;;;;2.60;2.40;;;;;19.80;100983.00;;;;2078797;28;20264;-69
2021/05/03 03:11:02;;;;;;;2.67;2.47;;;;;19.80;100986.00;;;;2078159;28;20213;-69
2021/05/03 03:12:04;;;;;;;2.40;2.20;;;;;19.80;100995.00;;;;2078374;28;20213;-69
2021/05/03 03:13:05;;;;;;;2.55;2.30;;;;;19.80;100985.00;;;;2078460;28;20222;-69
2021/05/03 03:14:05;;;;;;;2.50;2.30;;;;;19.80;100998.00;;;;2070375;28;20673;-69
2021/05/03 03:15:09;;;;;;;3.73;2.53;;;;;19.80;100982.00;;;;2078612;28;20680;-69
2021/05/03 03:16:09;;;;;;;3.03;2.72;;;;;19.80;100983.00;;;;2070625;28;20668;-69
2021/05/03 03:17:10;;;;;;;2.40;2.20;;;;;19.80;100984.00;;;;2070060;28;20215;-69
2021/05/03 03:18:10;;;;;;;2.00;1.80;;;;;19.80;100975.00;;;;2078944;28;20460;-69
2021/05/03 03:19:11;;;;;;;2.37;2.20;;;;;19.80;100984.00;;;;2078814;28;20244;-69
2021/05/03 03:20:12;;;;;;;3.10;2.67;;;;;19.70;100984.00;;;;2070827;28;20883;-69
2021/05/03 03:21:12;;;;;;;2.95;2.65;;;;;19.70;100978.00;;;;2070691;28;20264;-69
2021/05/03 03:22:13;;;;;;;2.37;2.17;;;;;19.80;100984.00;;;;2079059;28;20214;-69
2021/05/03 03:23:13;;;;;;;2.60;2.40;;;;;19.80;100982.00;;;;2079849;28;20624;-69
2021/05/03 03:24:13;;;;;;;2.60;2.40;;;;;19.80;100982.00;;;;2076178;28;20265;-69
2021/05/03 03:25:14;;;;;;;4.60;2.30;;;;;19.80;100980.00;;;;2078228;28;20217;-69
2021/05/03 03:26:15;;;;;;;2.67;2.47;;;;;19.70;100984.00;;;;2078341;28;20214;-69
2021/05/03 03:27:15;;;;;;;2.50;2.30;;;;;19.70;100983.00;;;;2078422;28;20213;-69
2021/05/03 03:28:15;;;;;;;2.53;2.33;;;;;19.70;100982.00;;;;2079263;28;20218;-69
2021/05/03 03:29:16;;;;;;;2.70;2.50;;;;;19.80;100987.00;;;;2075761;28;20286;-69
2021/05/03 03:30:17;;;;;;;3.10;2.50;;;;;19.80;100987.00;;;;2078294;28;20214;-69
2021/05/03 03:31:17;;;;;;;2.50;2.30;;;;;19.80;100983.00;;;;2079554;28;20217;-69
2021/05/03 03:32:17;;;;;;;2.53;2.33;;;;;19.70;100984.00;;;;2078977;28;21050;-69
2021/05/03 03:33:18;;;;;;;2.80;2.60;;;;;19.70;100986.00;;;;2079038;28;20244;-69
2021/05/03 03:34:18;;;;;;;2.53;2.33;;;;;19.80;100985.00;;;;2075559;28;20297;-69
2021/05/03 03:35:19;;;;;;;2.47;2.27;;;;;19.70;100982.00;;;;2078058;28;20214;-69
2021/05/03 03:36:19;;;;;;;2.97;2.30;;;;;19.70;100980.00;;;;2069825;28;20215;-69
2021/05/03 03:37:20;;;;;;;2.50;2.30;;;;;19.70;100977.00;;;;2078197;28;20894;-69
2021/05/03 03:38:20;;;;;;;2.37;2.17;;;;;19.70;100975.00;;;;2079319;28;20600;-69
2021/05/03 03:39:20;;;;;;;2.57;2.37;;;;;19.70;100967.00;;;;2078693;28;20653;-69
2021/05/03 03:40:21;;;;;;;3.00;2.80;;;;;19.70;100983.00;;;;2078240;28;20584;-69
2021/05/03 03:41:21;;;;;;;2.40;2.20;;;;;19.70;100983.00;;;;2078784;28;20225;-69
2021/05/03 03:42:21;;;;;;;2.90;2.63;;;;;19.70;100983.00;;;;2078946;28;20213;-69
2021/05/03 03:43:22;;;;;;;2.90;2.67;;;;;19.70;100988.00;;;;2078964;28;20685;-69
2021/05/03 03:44:22;;;;;;;2.50;2.30;;;;;19.70;100985.00;;;;2070672;28;20242;-69
2021/05/03 03:45:23;;;;;;;3.00;2.80;;;;;19.70;100979.00;;;;2078854;28;20289;-69
2021/05/03 03:46:23;;;;;;;2.80;2.60;;;;;19.70;100982.00;;;;2078608;28;20222;-69
2021/05/03 03:47:24;;;;;;;2.80;2.60;;;;;19.70;100978.00;;;;2070865;28;20218;-69
2021/05/03 03:48:24;;;;;;;2.93;2.73;;;;;19.70;100982.00;;;;2070924;28;20853;-69
2021/05/03 03:49:25;;;;;;;2.87;2.67;;;;;19.70;100971.00;;;;2067133;28;20960;-69
2021/05/03 03:50:25;;;;;;;3.40;2.80;;;;;19.70;100980.00;;;;2077909;28;20225;-69
2021/05/03 03:51:25;;;;;;;3.53;2.80;;;;;19.70;100979.00;;;;2078811;28;20218;-69
2021/05/03 03:52:26;;;;;;;3.40;3.10;;;;;19.70;100969.00;;;;2078723;28;20214;-69
2021/05/03 03:53:26;;;;;;;2.83;2.63;;;;;19.70;100976.00;;;;2070272;28;20234;-69
2021/05/03 03:54:26;;;;;;;2.93;2.73;;;;;19.70;100976.00;;;;2070177;28;20276;-69
2021/05/03 03:55:27;;;;;;;2.80;2.60;;;;;19.70;100957.00;;;;2079937;28;20222;-70
2021/05/03 03:56:28;;;;;;;2.17;2.07;;;;;19.70;100971.00;;;;2063293;28;20278;-69
2021/05/03 03:57:29;;;;;;;2.65;2.45;;;;;19.70;100975.00;;;;2071166;28;20219;-68
2021/05/03 03:58:29;;;;;;;2.80;2.60;;;;;19.70;100970.00;;;;2079582;28;20260;-68
2021/05/03 03:59:33;;;;;;;2.70;2.50;;;;;19.70;100974.00;;;;2079947;28;20684;-69
2021/05/03 04:00:33;;;;;;;2.70;2.50;;;;;19.70;100964.00;;;;2077614;28;20214;-69
2021/05/03 04:01:34;;;;;;;2.30;2.10;;;;;19.70;100976.00;;;;2079672;28;20214;-69
2021/05/03 04:02:35;;;;;;;2.90;2.60;;;;;19.70;100968.00;;;;2079733;28;20221;-69
2021/05/03 04:03:36;;;;;;;3.10;2.80;;;;;19.60;100957.00;;;;2074106;28;20736;-69
2021/05/03 04:04:40;;;;;;;3.05;2.80;;;;;19.60;100966.00;;;;2071276;28;20218;-69
2021/05/03 04:08:19;;;;;;;2.47;2.22;;;;;19.70;100973.00;;;;2080447;28;20213;-69
2021/05/03 04:13:09;;;;;;;3.10;2.85;;;;;19.60;100972.00;;;;2079876;28;20210;-68
2021/05/03 04:24:22;;;;;;;2.70;2.50;;;;;19.60;100972.00;;;;2079774;28;20210;-69
2021/05/03 04:25:29;;;;;;;2.85;2.65;;;;;19.60;100968.00;;;;2077171;28;20206;-69
2021/05/03 04:26:30;;;;;;;2.70;2.50;;;;;19.60;100965.00;;;;2080550;28;20206;-69
2021/05/03 04:27:30;;;;;;;2.70;2.50;;;;;19.60;100969.00;;;;2079645;28;20214;-69
2021/05/03 04:28:31;;;;;;;2.80;2.60;;;;;19.60;100969.00;;;;2079936;28;20659;-69
2021/05/03 04:29:31;;;;;;;2.63;2.43;;;;;19.60;100969.00;;;;2077347;28;20214;-69
2021/05/03 04:30:31;;;;;;;3.20;2.80;;;;;19.60;100967.00;;;;2076947;28;20225;-69
2021/05/03 04:31:32;;;;;;;3.50;2.40;;;;;19.60;100966.00;;;;2079364;28;20206;-69
2021/05/03 04:32:32;;;;;;;2.50;2.30;;;;;19.60;100964.00;;;;2071383;28;20214;-69
2021/05/03 04:33:32;;;;;;;2.30;2.10;;;;;19.60;100969.00;;;;2071321;28;20284;-69
2021/05/03 04:34:33;;;;;;;2.77;2.50;;;;;19.60;100966.00;;;;2071583;28;20222;-69
2021/05/03 04:35:33;;;;;;;2.93;2.63;;;;;19.60;100971.00;;;;2079578;28;20233;-69
2021/05/03 04:36:33;;;;;;;2.87;2.67;;;;;19.60;100977.00;;;;2080405;28;20214;-69
2021/05/03 04:37:34;;;;;;;2.70;2.50;;;;;19.60;100968.00;;;;2080410;28;20741;-69
2021/05/03 04:38:34;;;;;;;2.57;2.37;;;;;19.60;100971.00;;;;2080538;28;20707;-69
2021/05/03 04:39:35;;;;;;;2.90;2.60;;;;;19.60;100970.00;;;;2080036;28;20745;-69
2021/05/03 04:40:35;;;;;;;2.47;2.27;;;;;19.60;100967.00;;;;2080219;28;20297;-69
2021/05/03 04:41:35;;;;;;;2.67;2.30;;;;;19.60;100971.00;;;;2079515;28;20210;-69
2021/05/03 04:42:35;;;;;;;2.90;2.60;;;;;19.60;100968.00;;;;2071543;28;20214;-69
2021/05/03 04:43:36;;;;;;;2.87;2.53;;;;;19.60;100973.00;;;;2075337;28;20210;-70
2021/05/03 04:44:36;;;;;;;3.13;2.60;;;;;19.60;100973.00;;;;2078950;28;20218;-69
2021/05/03 04:45:37;;;;;;;3.10;2.80;;;;;19.60;100973.00;;;;2079554;28;20596;-70
2021/05/03 04:46:37;;;;;;;2.70;2.50;;;;;19.60;100981.00;;;;2079607;28;20634;-70
2021/05/03 04:47:38;;;;;;;2.43;2.23;;;;;19.60;100980.00;;;;2080297;28;20604;-69
2021/05/03 04:48:39;;;;;;;2.60;2.40;;;;;19.60;100978.00;;;;2079599;28;20210;-68
2021/05/03 04:49:39;;;;;;;2.93;2.73;;;;;19.50;100979.00;;;;2079902;28;20218;-68
2021/05/03 04:50:39;;;;;;;2.70;2.50;;;;;19.60;100979.00;;;;2079530;28;20845;-68
2021/05/03 04:51:40;;;;;;;2.90;2.70;;;;;19.60;100980.00;;;;2071856;28;20220;-69
2021/05/03 04:52:40;;;;;;;2.90;2.60;;;;;19.50;100975.00;;;;2080132;28;20240;-68
2021/05/03 04:53:40;;;;;;;2.87;2.53;;;;;19.60;100976.00;;;;2079882;28;20224;-68
2021/05/03 04:54:41;;;;;;;3.10;2.90;;;;;19.60;100975.00;;;;2062838;28;20298;-69
2021/05/03 04:55:41;;;;;;;2.80;2.60;;;;;19.60;100981.00;;;;2071939;28;20257;-68
2021/05/03 04:56:41;;;;;;;2.90;2.70;;;;;19.50;100976.00;;;;2080802;28;20210;-69
2021/05/03 04:57:42;;;;;;;3.00;2.70;;;;;19.60;100982.00;;;;2080765;28;20266;-68
2021/05/03 04:58:42;;;;;;;2.53;2.33;;;;;19.60;100985.00;;;;2077134;28;20206;-69
2021/05/03 04:59:42;;;;;;;2.73;2.53;;;;;19.60;100982.00;;;;2080742;28;20738;-69
2021/05/03 05:00:43;;;;;;;2.67;2.47;;;;;19.50;100984.00;;;;2079747;28;20220;-69
2021/05/03 05:01:43;;;;;;;2.77;2.47;;;;;19.50;100975.00;;;;2071864;28;20211;-68
2021/05/03 05:02:44;;;;;;;3.43;2.57;;;;;19.50;100975.00;;;;2071724;28;20215;-69
2021/05/03 05:03:44;;;;;;;2.50;2.30;;;;;19.50;100964.00;;;;2080046;28;20225;-69
2021/05/03 05:04:44;;;;;;;2.80;2.60;;;;;19.60;100982.00;;;;2079778;28;20232;-68
2021/05/03 05:05:47;;;;;;;2.87;2.63;;;;;19.50;100967.00;;;;2079863;28;20250;-69
2021/05/03 05:06:48;;;;;;;2.72;2.42;;;;;19.50;100973.00;;;;2079072;28;20221;-69
2021/05/03 05:07:48;;;;;;;4.13;3.00;;;;;19.50;100978.00;;;;2080701;28;20244;-69
2021/05/03 05:08:48;;;;;;;3.00;2.80;;;;;19.50;100972.00;;;;2080335;28;20237;-68
2021/05/03 05:09:49;;;;;;;2.80;2.60;;;;;19.50;100973.00;;;;2080681;28;20225;-69
2021/05/03 05:10:49;;;;;;;2.67;2.47;;;;;19.50;100969.00;;;;2079249;28;20226;-69
2021/05/03 05:11:49;;;;;;;2.73;2.53;;;;;19.50;100974.00;;;;2079398;28;20214;-69
2021/05/03 05:12:50;;;;;;;2.90;2.70;;;;;19.50;100968.00;;;;2078925;28;20218;-69
2021/05/03 05:13:50;;;;;;;3.10;2.73;;;;;19.50;100963.00;;;;2079068;28;20241;-69
2021/05/03 05:14:50;;;;;;;2.80;2.60;;;;;19.50;100962.00;;;;2079847;28;20234;-69
2021/05/03 05:15:51;;;;;;;3.20;2.90;;;;;19.50;100966.00;;;;2080123;28;20244;-69
2021/05/03 05:16:51;;;;;;;2.90;2.60;;;;;19.50;100970.00;;;;2079808;28;20218;-69